Time;durP1;ratioP1;P1;durP2;ratioP2;P2;SDS_P1;SDS_P2;PMS_P1;PMS_P2;Temp;Humidity;BMP_temperature;BMP_pressure;BME280_temperature;BME280_humidity;BME280_pressure;Samples;Min_cycle;Max_cycle;Signal;HPM_P1;HPM_P2
2023/09/24 00:00:50;;;;;;;6.90;0.87;;;;;;;12.27;100.00;102467.00;4962150;28;20542;-76
2023/09/24 00:03:16;;;;;;;3.40;1.10;;;;;;;12.37;100.00;102497.25;4980065;28;20217;-76
2023/09/24 00:05:42;;;;;;;2.90;1.10;;;;;;;12.58;100.00;102523.66;4959051;28;20976;-76
2023/09/24 00:08:08;;;;;;;4.37;1.10;;;;;;;12.59;100.00;102537.94;4966363;28;20202;-76
2023/09/24 00:10:34;;;;;;;4.13;1.30;;;;;;;12.49;100.00;102551.56;4977076;28;20461;-76
2023/09/24 00:12:59;;;;;;;2.80;0.97;;;;;;;12.20;100.00;102492.91;4965962;28;20613;-77
2023/09/24 00:15:27;;;;;;;6.63;1.47;;;;;;;12.60;100.00;102545.84;4961901;28;20190;-76
2023/09/24 00:17:52;;;;;;;3.63;1.13;;;;;;;11.45;100.00;102407.81;4964769;28;20618;-76
2023/09/24 00:20:19;;;;;;;5.00;1.40;;;;;;;11.87;100.00;102490.22;4967673;28;20455;-76
2023/09/24 00:22:47;;;;;;;3.37;1.50;;;;;;;11.87;100.00;102482.16;4964133;28;20210;-76
2023/09/24 00:25:14;;;;;;;3.10;1.27;;;;;;;11.33;100.00;102422.56;4964029;28;20463;-76
2023/09/24 00:27:40;;;;;;;4.83;1.80;;;;;;;11.63;100.00;102439.06;4967112;28;20529;-76
2023/09/24 00:30:06;;;;;;;4.93;1.40;;;;;;;12.09;100.00;102477.97;4964438;28;20456;-75
2023/09/24 00:32:31;;;;;;;6.30;1.50;;;;;;;12.30;100.00;102490.03;4966733;28;20206;-77
2023/09/24 00:34:57;;;;;;;4.53;1.77;;;;;;;12.43;100.00;102571.09;4963214;28;20452;-77
2023/09/24 00:37:22;;;;;;;5.07;1.40;;;;;;;11.95;100.00;102513.59;4964074;28;20197;-76
2023/09/24 00:39:47;;;;;;;3.97;1.40;;;;;;;11.76;100.00;102439.44;4964157;28;20191;-76
2023/09/24 00:42:13;;;;;;;9.47;1.77;;;;;;;11.91;100.00;102475.41;4965680;28;20716;-76
2023/09/24 00:44:38;;;;;;;3.53;1.10;;;;;;;12.20;100.00;102498.28;4982113;28;20552;-76
2023/09/24 00:47:04;;;;;;;3.53;1.10;;;;;;;12.52;100.00;102569.22;4964697;28;20305;-75
2023/09/24 00:49:30;;;;;;;3.40;1.10;;;;;;;12.24;100.00;102525.66;4963510;28;20186;-76
2023/09/24 00:51:57;;;;;;;4.00;1.20;;;;;;;12.19;100.00;102582.69;4963728;28;20475;-76
2023/09/24 00:54:22;;;;;;;4.03;1.03;;;;;;;12.10;100.00;102533.41;4967032;28;20437;-76
2023/09/24 00:56:50;;;;;;;5.17;1.47;;;;;;;12.50;100.00;102573.94;4981408;28;20956;-76
2023/09/24 00:59:15;;;;;;;5.93;1.20;;;;;;;12.25;100.00;102548.91;4978948;28;20186;-76
2023/09/24 01:01:40;;;;;;;4.23;1.37;;;;;;;12.59;100.00;102572.94;4980748;28;20995;-76
2023/09/24 01:04:07;;;;;;;6.90;1.70;;;;;;;12.74;100.00;102603.53;4962312;28;20198;-76
2023/09/24 01:06:33;;;;;;;5.00;1.13;;;;;;;12.61;100.00;102571.75;4976298;28;20261;-77
2023/09/24 01:08:59;;;;;;;4.37;1.40;;;;;;;11.84;100.00;102460.94;4964340;28;20442;-76
2023/09/24 01:11:27;;;;;;;3.10;1.30;;;;;;;12.48;100.00;102560.66;4960512;28;20494;-76
2023/09/24 01:13:52;;;;;;;3.67;1.00;;;;;;;12.65;100.00;102554.25;4961436;28;20967;-77
2023/09/24 01:16:18;;;;;;;5.60;1.60;;;;;;;12.50;100.00;102522.78;4964051;28;20507;-76
2023/09/24 01:18:44;;;;;;;5.73;1.40;;;;;;;12.70;100.00;102545.66;4965098;28;20229;-76
2023/09/24 01:21:17;;;;;;;2.93;1.10;;;;;;;12.05;100.00;102481.97;4963402;28;20253;-76
2023/09/24 01:23:45;;;;;;;5.60;1.53;;;;;;;12.89;100.00;102599.13;4980830;28;20993;-76
2023/09/24 01:26:13;;;;;;;4.00;1.37;;;;;;;12.76;100.00;102582.69;4980807;28;20985;-76
2023/09/24 01:28:40;;;;;;;4.60;1.50;;;;;;;12.68;100.00;102571.06;4960986;28;20788;-76
2023/09/24 01:31:06;;;;;;;3.80;1.23;;;;;;;12.58;100.00;102598.16;4961862;28;20473;-76
2023/09/24 01:33:32;;;;;;;9.03;2.00;;;;;;;12.56;100.00;102600.19;4963066;28;20476;-76
2023/09/24 01:35:58;;;;;;;5.67;1.50;;;;;;;11.92;100.00;102509.38;4963623;28;21024;-77
2023/09/24 01:38:25;;;;;;;7.80;1.87;;;;;;;11.95;100.00;102529.72;4964119;28;22637;-76
2023/09/24 01:40:51;;;;;;;5.37;1.60;;;;;;;12.45;100.00;102614.81;4960462;28;20808;-77
2023/09/24 01:43:17;;;;;;;6.23;1.60;;;;;;;11.92;100.00;102538.97;4961924;28;20461;-76
2023/09/24 01:45:43;;;;;;;6.90;1.97;;;;;;;12.09;100.00;102569.41;4966561;28;20476;-76
2023/09/24 01:48:09;;;;;;;4.40;1.40;;;;;;;12.65;100.00;102647.63;4964833;28;20189;-77
2023/09/24 01:50:36;;;;;;;4.87;1.47;;;;;;;12.23;100.00;102584.03;4965159;28;20465;-76
2023/09/24 01:53:03;;;;;;;4.80;1.70;;;;;;;12.66;100.00;102657.38;4963876;28;20476;-76
2023/09/24 01:55:29;;;;;;;5.00;1.50;;;;;;;12.02;100.00;102546.84;4964726;28;20863;-76
2023/09/24 01:57:55;;;;;;;5.97;1.57;;;;;;;12.55;100.00;102638.88;4964562;28;20437;-76
2023/09/24 02:00:26;;;;;;;6.93;1.53;;;;;;;12.30;100.00;102633.50;4962807;28;20453;-76
2023/09/24 02:02:54;;;;;;;6.80;1.67;;;;;;;12.33;100.00;102668.13;4963151;28;20968;-76
2023/09/24 02:05:19;;;;;;;8.93;2.10;;;;;;;12.33;100.00;102637.69;4961568;28;20463;-76
2023/09/24 02:07:46;;;;;;;4.77;1.63;;;;;;;12.39;100.00;102663.94;4962778;28;20457;-76
2023/09/24 02:10:17;;;;;;;5.40;1.43;;;;;;;12.39;100.00;102691.69;4962855;28;20437;-76
2023/09/24 02:12:45;;;;;;;4.00;1.10;;;;;;;11.80;100.00;102567.13;4959212;28;20547;-76
2023/09/24 02:15:10;;;;;;;3.60;1.10;;;;;;;11.93;100.00;102597.09;4978273;28;20452;-76
2023/09/24 02:17:38;;;;;;;7.30;1.37;;;;;;;12.55;100.00;102706.16;4962568;28;20438;-76
2023/09/24 02:20:18;;;;;;;6.13;1.70;;;;;;;12.53;100.00;102697.44;4965001;28;20221;-76
2023/09/24 02:22:45;;;;;;;3.40;1.20;;;;;;;12.22;100.00;102652.31;4979925;28;20461;-76
2023/09/24 02:25:13;;;;;;;5.50;1.30;;;;;;;11.72;100.00;102573.34;4963411;28;20454;-77
2023/09/24 02:27:39;;;;;;;3.80;1.10;;;;;;;12.42;100.00;102685.13;4962185;28;20519;-76
2023/09/24 02:30:05;;;;;;;5.85;1.20;;;;;;;12.37;100.00;102685.63;4962053;28;20445;-75
2023/09/24 02:32:32;;;;;;;3.90;1.10;;;;;;;12.38;100.00;102673.88;4981624;28;20553;-76
2023/09/24 02:34:57;;;;;;;5.60;1.30;;;;;;;12.06;100.00;102638.81;4967328;28;20448;-76
2023/09/24 02:37:23;;;;;;;6.47;1.50;;;;;;;12.53;100.00;102692.88;4969087;28;20441;-75
2023/09/24 02:39:48;;;;;;;5.43;1.50;;;;;;;11.74;100.00;102591.97;4966008;28;20694;-76
2023/09/24 02:42:15;;;;;;;6.10;1.33;;;;;;;12.42;100.00;102712.88;4968466;28;20225;-76
2023/09/24 02:44:41;;;;;;;5.30;1.40;;;;;;;11.84;100.00;102589.16;4967125;28;20187;-76
2023/09/24 02:47:07;;;;;;;4.37;1.40;;;;;;;11.82;100.00;102589.31;4966875;28;20473;-75
2023/09/24 02:49:32;;;;;;;4.73;1.50;;;;;;;12.51;100.00;102691.38;4980382;28;20187;-76
2023/09/24 02:51:58;;;;;;;5.17;1.23;;;;;;;12.31;100.00;102694.34;4982179;28;20586;-76
2023/09/24 02:54:23;;;;;;;3.63;1.10;;;;;;;12.38;100.00;102708.84;4965340;28;20194;-76
2023/09/24 02:56:50;;;;;;;3.03;1.00;;;;;;;12.23;100.00;102669.28;4966568;28;20221;-76
2023/09/24 02:59:15;;;;;;;4.17;1.00;;;;;;;11.72;100.00;102618.19;4966796;28;20182;-76
2023/09/24 03:01:46;;;;;;;2.93;1.00;;;;;;;12.21;100.00;102681.06;4968837;28;20464;-76
2023/09/24 03:04:12;;;;;;;3.40;1.10;;;;;;;11.67;100.00;102620.53;4982981;28;20676;-76
2023/09/24 03:06:37;;;;;;;4.80;1.03;;;;;;;10.66;100.00;102491.47;5009005;23;20459;-79
2023/09/24 03:09:04;;;;;;;3.87;1.10;;;;;;;9.70;100.00;102329.59;4986719;28;20306;-80
2023/09/24 03:11:29;;;;;;;5.20;1.17;;;;;;;10.36;100.00;102482.91;4993914;28;20210;-80
2023/09/24 03:13:54;;;;;;;3.13;1.20;;;;;;;9.58;100.00;102336.22;4989629;28;20880;-79
2023/09/24 03:16:20;;;;;;;4.40;1.20;;;;;;;11.11;100.00;102605.81;5005494;28;20691;-79
2023/09/24 03:18:47;;;;;;;4.23;1.20;;;;;;;10.27;100.00;102502.59;5005988;28;20761;-79
2023/09/24 03:21:13;;;;;;;2.83;1.07;;;;;;;10.52;100.00;102558.13;4989241;28;20186;-79
2023/09/24 03:23:38;;;;;;;4.73;1.67;;;;;;;11.12;100.00;102680.03;4989478;28;20468;-79
2023/09/24 03:26:04;;;;;;;2.87;1.10;;;;;;;9.61;100.00;102443.06;4989874;28;20539;-80
2023/09/24 03:28:29;;;;;;;6.13;2.40;;;;;;;10.34;100.00;102608.28;4992797;28;20201;-79
2023/09/24 03:30:55;;;;;;;4.00;1.17;;;;;;;10.61;100.00;102608.16;4990918;28;20200;-79
2023/09/24 03:33:20;;;;;;;4.10;1.20;;;;;;;9.84;100.00;102544.44;4988042;28;20201;-79
2023/09/24 03:35:47;;;;;;;2.93;1.00;;;;;;;10.70;100.00;102686.88;5005725;28;20185;-79
2023/09/24 03:38:12;;;;;;;4.03;1.20;;;;;;;10.63;100.00;102721.56;4989603;28;20205;-79
2023/09/24 03:40:38;;;;;;;4.20;1.53;;;;;;;10.25;100.00;102658.28;4992817;28;20540;-79
2023/09/24 03:43:03;;;;;;;5.70;1.70;;;;;;;11.02;100.00;102828.66;4991606;28;20271;-79
2023/09/24 03:45:29;;;;;;;4.87;1.30;;;;;;;9.50;100.00;102537.88;4988703;28;20232;-79
2023/09/24 03:47:54;;;;;;;3.30;1.10;;;;;;;10.37;100.00;102718.78;4990577;28;20193;-79
2023/09/24 03:50:20;;;;;;;3.10;1.60;;;;;;;9.48;100.00;102566.63;4990102;28;20208;-79
2023/09/24 03:52:51;;;;;;;6.30;1.63;;;;;;;10.91;100.00;102823.50;4987941;28;20225;-79
2023/09/24 03:55:18;;;;;;;3.00;1.03;;;;;;;10.59;100.00;102832.91;4987814;28;20186;-79
2023/09/24 03:57:44;;;;;;;3.90;1.47;;;;;;;10.36;100.00;102796.75;5005611;28;20473;-79
2023/09/24 04:00:18;;;;;;;5.20;1.60;;;;;;;9.48;100.00;102660.38;4991925;28;20977;-79
2023/09/24 04:02:47;;;;;;;6.73;1.70;;;;;;;10.49;100.00;102879.53;4986599;28;20829;-79
2023/09/24 04:05:17;;;;;;;4.07;1.53;;;;;;;11.06;100.00;103015.34;4988993;28;20531;-79
2023/09/24 04:07:47;;;;;;;2.77;1.20;;;;;;;9.54;100.00;102771.47;4986815;28;20487;-79
2023/09/24 04:10:14;;;;;;;4.57;1.80;;;;;;;9.23;100.00;102718.13;4987153;28;20552;-79
2023/09/24 04:12:46;;;;;;;4.87;1.60;;;;;;;8.98;100.00;102698.16;4987580;28;20492;-78
2023/09/24 04:15:13;;;;;;;5.80;1.53;;;;;;;9.45;100.00;102809.84;5005455;28;20468;-79
2023/09/24 04:17:41;;;;;;;4.50;2.00;;;;;;;10.32;100.00;102924.94;4989363;28;21993;-79
2023/09/24 04:20:07;;;;;;;2.60;1.33;;;;;;;9.11;100.00;102729.97;4990262;28;21319;-78
2023/09/24 04:22:33;;;;;;;3.63;1.80;;;;;;;9.28;100.00;102806.88;5004294;28;20551;-78
2023/09/24 04:24:59;;;;;;;3.50;1.90;;;;;;;10.61;100.00;103016.06;4987535;28;20548;-79
2023/09/24 04:27:25;;;;;;;6.10;2.03;;;;;;;9.02;100.00;102768.28;5005059;28;20502;-78
2023/09/24 04:29:50;;;;;;;3.40;1.93;;;;;;;9.76;100.00;102895.41;4989063;28;20193;-79
2023/09/24 04:32:16;;;;;;;5.60;2.60;;;;;;;10.10;100.00;102946.72;4989120;28;20530;-79
2023/09/24 04:34:43;;;;;;;3.57;2.03;;;;;;;9.77;100.00;102876.50;4987729;28;20687;-79
2023/09/24 04:37:10;;;;;;;5.20;1.80;;;;;;;9.94;100.00;102952.66;5004868;28;20226;-79
2023/09/24 04:39:35;;;;;;;5.10;2.53;;;;;;;9.49;100.00;102887.09;4987693;28;20463;-79
2023/09/24 04:42:00;;;;;;;5.87;2.13;;;;;;;10.24;100.00;103001.72;4983683;28;20468;-79
2023/09/24 04:44:26;;;;;;;4.20;2.40;;;;;;;9.71;100.00;102942.22;5001989;28;20198;-79
2023/09/24 04:46:53;;;;;;;5.20;2.50;;;;;;;9.98;100.00;102963.94;4986940;28;20237;-78
2023/09/24 04:49:18;;;;;;;5.50;3.00;;;;;;;9.57;100.00;102901.63;4987557;28;20226;-79
2023/09/24 04:51:44;;;;;;;3.65;2.05;;;;;;;9.89;100.00;102912.00;4989649;28;20911;-79
2023/09/24 04:54:09;;;;;;;4.20;2.60;;;;;;;9.36;100.00;102818.75;5001664;28;20220;-78
2023/09/24 04:56:34;;;;;;;4.50;2.60;;;;;;;9.31;100.00;102877.22;4989894;28;20201;-78
2023/09/24 04:59:00;;;;;;;3.70;2.40;;;;;;;9.61;100.00;102906.56;4987768;28;20197;-78
2023/09/24 05:01:26;;;;;;;5.30;2.40;;;;;;;9.86;100.00;102987.34;4987483;28;20186;-79
2023/09/24 05:03:53;;;;;;;3.47;2.10;;;;;;;9.08;100.00;102789.13;4988113;28;20448;-79
2023/09/24 05:06:18;;;;;;;4.33;2.30;;;;;;;11.21;100.00;103146.47;4989355;28;20248;-78
2023/09/24 05:08:45;;;;;;;3.47;1.60;;;;;;;10.79;100.00;103154.88;4988030;28;20979;-79
2023/09/24 05:11:12;;;;;;;3.97;2.10;;;;;;;9.91;100.00;102993.97;4985935;28;20687;-78
2023/09/24 05:13:37;;;;;;;3.77;2.30;;;;;;;8.62;100.00;102774.63;4986973;28;20487;-78
2023/09/24 05:16:03;;;;;;;3.37;2.20;;;;;;;9.65;100.00;102982.13;4991995;28;20429;-79
2023/09/24 05:18:29;;;;;;;3.30;2.07;;;;;;;8.89;100.00;102826.63;4985513;28;20229;-79
2023/09/24 05:20:55;;;;;;;7.67;2.10;;;;;;;9.88;100.00;103072.00;4989072;28;20188;-79
2023/09/24 05:23:21;;;;;;;3.93;2.20;;;;;;;8.93;100.00;102935.09;4985148;28;20464;-79
2023/09/24 05:25:47;;;;;;;7.50;2.10;;;;;;;9.41;100.00;103042.31;4988605;28;20687;-79
2023/09/24 05:28:14;;;;;;;3.23;2.27;;;;;;;9.27;100.00;103050.72;4989204;28;20471;-79
2023/09/24 05:30:39;;;;;;;3.50;2.20;;;;;;;9.63;100.00;103022.50;4984844;28;20448;-79
2023/09/24 05:33:06;;;;;;;4.40;2.20;;;;;;;9.52;100.00;103038.69;4985995;28;20463;-79
2023/09/24 05:35:31;;;;;;;3.60;2.20;;;;;;;9.02;100.00;102937.78;4984075;28;20225;-78
2023/09/24 05:37:57;;;;;;;3.27;2.27;;;;;;;8.09;100.00;102855.91;4983434;28;20448;-79
2023/09/24 05:40:22;;;;;;;4.23;2.70;;;;;;;9.31;100.00;103073.56;4988191;28;20244;-78
2023/09/24 05:42:48;;;;;;;5.80;2.90;;;;;;;8.12;100.00;102889.53;4982826;28;20209;-79
2023/09/24 05:45:13;;;;;;;3.93;2.53;;;;;;;8.70;100.00;103046.81;4986682;28;20256;-78
2023/09/24 05:47:39;;;;;;;4.17;2.80;;;;;;;9.41;100.00;103173.56;4987608;28;20200;-78
2023/09/24 05:50:05;;;;;;;5.60;3.50;;;;;;;9.15;100.00;103158.94;4985008;28;20208;-78
2023/09/24 05:52:30;;;;;;;4.60;2.70;;;;;;;8.02;100.00;102932.25;4983141;28;20217;-78
2023/09/24 05:54:57;;;;;;;4.50;3.00;;;;;;;9.49;100.00;103229.16;5000472;28;20487;-78
2023/09/24 05:57:26;;;;;;;6.13;3.63;;;;;;;9.38;100.00;103258.72;4984193;28;20185;-78
2023/09/24 05:59:53;;;;;;;6.87;3.30;;;;;;;9.42;100.00;103247.59;4985497;28;20441;-78
2023/09/24 06:02:19;;;;;;;5.27;3.77;;;;;;;9.81;100.00;103279.97;5003189;28;20527;-79
2023/09/24 06:04:45;;;;;;;4.00;2.87;;;;;;;8.44;100.00;103065.94;4980960;28;20776;-79
2023/09/24 06:07:10;;;;;;;8.83;3.90;;;;;;;9.73;100.00;103339.59;4986233;28;20475;-77
2023/09/24 06:09:36;;;;;;;4.20;2.87;;;;;;;9.78;100.00;103295.44;4990549;28;20642;-79
2023/09/24 06:12:02;;;;;;;5.33;3.47;;;;;;;8.52;100.00;103142.88;4992012;28;20215;-78
2023/09/24 06:14:27;;;;;;;4.57;3.40;;;;;;;8.89;100.00;103191.44;4987465;28;20201;-79
2023/09/24 06:16:52;;;;;;;5.23;3.43;;;;;;;8.73;100.00;103177.66;4991118;28;20192;-78
2023/09/24 06:19:18;;;;;;;5.73;3.67;;;;;;;8.57;100.00;103136.16;4993188;28;20216;-78
2023/09/24 06:21:43;;;;;;;5.60;4.00;;;;;;;9.25;100.00;103253.53;4989828;28;20216;-79
2023/09/24 06:24:09;;;;;;;4.90;3.10;;;;;;;8.66;100.00;103109.59;4991589;28;20185;-79
2023/09/24 06:26:35;;;;;;;5.20;3.50;;;;;;;8.33;100.00;103108.75;4988398;28;20217;-78
2023/09/24 06:29:00;;;;;;;6.20;4.43;;;;;;;8.26;100.00;103097.72;4993444;28;20296;-78
2023/09/24 06:31:26;;;;;;;6.23;5.10;;;;;;;10.87;100.00;103506.75;4988481;28;20441;-78
2023/09/24 06:33:51;;;;;;;5.97;4.77;;;;;;;7.82;100.00;103003.41;4989924;28;20192;-78
2023/09/24 06:36:17;;;;;;;6.97;4.90;;;;;;;9.10;100.00;103268.25;4988367;28;20197;-78
2023/09/24 06:38:44;;;;;;;8.70;5.10;;;;;;;10.00;100.00;103370.34;4989699;28;20189;-78
2023/09/24 06:41:09;;;;;;;8.50;5.80;;;;;;;9.14;100.00;103258.97;4988830;28;20672;-79
2023/09/24 06:43:35;;;;;;;7.23;5.50;;;;;;;8.64;100.00;103200.69;5005199;28;20514;-78
2023/09/24 06:46:04;;;;;;;8.17;5.70;;;;;;;9.48;100.00;103246.22;4991203;28;20198;-79
2023/09/24 06:48:30;;;;;;;7.70;6.20;;;;;;;8.50;100.00;103097.50;4991087;28;20217;-78
2023/09/24 06:51:05;;;;;;;7.37;5.20;;;;;;;8.87;100.00;103155.09;4992195;28;20900;-78
2023/09/24 06:53:30;;;;;;;7.60;5.90;;;;;;;9.88;100.00;103366.88;4989390;28;20456;-78
2023/09/24 06:55:57;;;;;;;9.47;6.70;;;;;;;8.82;100.00;103188.47;4989392;28;20425;-78
2023/09/24 06:58:22;;;;;;;9.43;6.60;;;;;;;8.81;100.00;103170.69;4989584;28;20193;-78
2023/09/24 07:00:48;;;;;;;10.90;7.20;;;;;;;9.66;100.00;103353.63;4993460;28;20931;-77
2023/09/24 07:03:13;;;;;;;10.33;7.47;;;;;;;8.58;100.00;103161.06;4990740;28;20202;-78
2023/09/24 07:05:38;;;;;;;10.10;6.93;;;;;;;9.13;100.00;103217.94;4986571;28;20201;-78
2023/09/24 07:08:04;;;;;;;10.67;7.30;;;;;;;8.80;100.00;103166.31;5005015;28;20693;-78
2023/09/24 07:10:30;;;;;;;10.00;7.20;;;;;;;10.20;100.00;103416.88;4988539;28;20197;-78
2023/09/24 07:12:55;;;;;;;9.50;8.00;;;;;;;10.19;100.00;103417.88;4989612;28;20233;-78
2023/09/24 07:15:21;;;;;;;8.97;7.20;;;;;;;9.64;100.00;103318.09;4994065;28;20182;-78
2023/09/24 07:17:46;;;;;;;11.07;8.67;;;;;;;8.86;100.00;103162.28;4995302;28;20660;-78
2023/09/24 07:20:13;;;;;;;11.10;7.40;;;;;;;8.97;100.00;103137.28;4993920;28;20189;-78
2023/09/24 07:22:38;;;;;;;10.20;7.77;;;;;;;9.01;100.00;103144.06;4990360;28;20264;-77
2023/09/24 07:25:05;;;;;;;12.93;8.00;;;;;;;9.37;100.00;103241.78;4990326;28;20445;-78
2023/09/24 07:27:31;;;;;;;10.17;8.07;;;;;;;9.15;100.00;103180.34;4989916;28;20619;-78
2023/09/24 07:29:57;;;;;;;10.47;7.57;;;;;;;9.19;100.00;103209.38;4992377;28;20459;-77
2023/09/24 07:32:22;;;;;;;11.63;8.17;;;;;;;10.75;100.00;103401.31;4988746;28;20241;-78
2023/09/24 07:34:48;;;;;;;11.63;7.80;;;;;;;9.92;100.00;103277.19;4992359;28;20648;-78
2023/09/24 07:37:16;;;;;;;9.10;7.10;;;;;;;9.87;100.00;103260.66;4992324;28;20241;-78
2023/09/24 07:39:42;;;;;;;12.80;8.40;;;;;;;9.32;100.00;103136.03;4985311;28;20276;-78
2023/09/24 07:42:08;;;;;;;12.47;8.80;;;;;;;9.42;100.00;103139.59;4988680;28;20975;-77
2023/09/24 07:44:33;;;;;;;9.60;7.63;;;;;;;10.66;100.00;103328.81;4987345;28;20193;-77
2023/09/24 07:46:59;;;;;;;9.43;7.17;;;;;;;11.13;100.00;103377.34;4987815;28;20204;-77
2023/09/24 07:49:24;;;;;;;11.77;8.50;;;;;;;11.38;100.00;103368.72;4986508;28;20196;-78
2023/09/24 07:51:50;;;;;;;10.13;6.83;;;;;;;11.41;100.00;103335.34;4983714;28;20765;-78
2023/09/24 07:54:17;;;;;;;11.50;7.47;;;;;;;11.78;100.00;103340.78;4987214;28;20193;-78
2023/09/24 07:56:43;;;;;;;9.90;6.63;;;;;;;10.89;100.00;103184.44;5005447;28;20228;-79
2023/09/24 07:59:09;;;;;;;9.90;6.47;;;;;;;10.62;100.00;103102.81;4985562;28;20483;-79
2023/09/24 08:01:35;;;;;;;7.33;5.60;;;;;;;10.71;100.00;103131.47;4986156;28;20444;-81
2023/09/24 08:04:12;;;;;;;10.57;6.40;;;;;;;11.45;100.00;103186.25;4994230;28;20448;-81
2023/09/24 08:06:38;;;;;;;9.30;6.27;;;;;;;11.12;100.00;103163.47;4987347;28;20415;-79
2023/09/24 08:09:05;;;;;;;10.27;6.40;;;;;;;12.03;100.00;103293.56;4986804;28;20445;-80
2023/09/24 08:11:32;;;;;;;8.37;5.67;;;;;;;11.62;100.00;103227.63;4993695;28;20186;-80
2023/09/24 08:13:57;;;;;;;9.70;5.80;;;;;;;11.70;100.00;103231.28;5006410;28;21077;-80
2023/09/24 08:16:23;;;;;;;11.50;5.40;;;;;;;11.55;100.00;103146.75;4998237;28;20528;-80
2023/09/24 08:18:49;;;;;;;9.03;5.13;;;;;;;11.53;100.00;103143.34;4994041;28;20675;-79
2023/09/24 08:21:15;;;;;;;9.37;5.70;;;;;;;11.16;100.00;103069.00;4992590;28;20388;-80
2023/09/24 08:23:40;;;;;;;10.77;5.83;;;;;;;11.11;100.00;103051.63;4989420;28;21224;-80
2023/09/24 08:26:06;;;;;;;7.33;5.37;;;;;;;12.71;100.00;103347.03;4987737;28;20656;-79
2023/09/24 08:28:31;;;;;;;8.13;4.43;;;;;;;11.92;100.00;103173.63;4990350;28;21073;-81
2023/09/24 08:30:57;;;;;;;7.40;4.90;;;;;;;11.63;100.00;103135.22;4988979;28;20248;-80
2023/09/24 08:33:22;;;;;;;10.87;5.67;;;;;;;11.65;100.00;103146.69;4988605;28;20212;-79
2023/09/24 08:35:48;;;;;;;10.90;6.23;;;;;;;10.70;100.00;102960.66;4989371;28;20182;-81
2023/09/24 08:38:14;;;;;;;6.67;4.70;;;;;;;12.55;100.00;103190.72;4989556;28;20293;-80
2023/09/24 08:40:40;;;;;;;10.00;6.20;;;;;;;10.68;100.00;102932.31;4990240;28;20205;-78
2023/09/24 08:43:14;;;;;;;9.03;5.10;;;;;;;12.04;100.00;103098.09;4984982;28;20464;-80
2023/09/24 08:45:41;;;;;;;7.23;5.03;;;;;;;12.71;100.00;103208.88;4988841;28;20551;-79
2023/09/24 08:48:09;;;;;;;10.00;4.83;;;;;;;11.59;100.00;102991.41;4987741;28;20451;-79
2023/09/24 08:50:38;;;;;;;9.23;5.57;;;;;;;11.49;100.00;103024.56;4986806;28;20874;-80
2023/09/24 08:53:10;;;;;;;8.70;4.33;;;;;;;12.62;100.00;103179.19;4985846;28;20574;-78
2023/09/24 08:55:37;;;;;;;10.90;4.97;;;;;;;12.77;100.00;103192.94;5003210;28;20583;-78
2023/09/24 08:58:03;;;;;;;14.70;6.03;;;;;;;12.31;100.00;103148.28;4991198;28;20440;-79
2023/09/24 09:00:28;;;;;;;14.03;4.83;;;;;;;12.07;100.00;103084.31;4987619;28;20946;-80
2023/09/24 09:02:53;;;;;;;7.50;4.50;;;;;;;12.62;100.00;103122.63;4988710;28;20219;-79
2023/09/24 09:05:21;;;;;;;8.50;4.70;;;;;;;12.81;100.00;103072.25;4988281;28;20197;-79
2023/09/24 09:07:58;;;;;;;7.60;4.37;;;;;;;12.50;100.00;103048.53;4987423;23;20226;-76
2023/09/24 09:10:32;;;;;;;8.63;4.00;;;;;;;13.11;100.00;103122.13;4960381;28;20472;-74
2023/09/24 09:13:18;;;;;;;9.60;4.37;;;;;;;14.29;100.00;103297.63;4960809;28;20466;-75
2023/09/24 09:15:44;;;;;;;8.73;4.23;;;;;;;13.29;100.00;103122.91;4966348;28;21002;-74
2023/09/24 09:18:25;;;;;;;7.63;3.40;;;;;;;11.46;100.00;102777.63;4956016;28;20477;-75
2023/09/24 09:20:59;;;;;;;9.57;4.60;;;;;;;12.97;100.00;103061.59;4963502;28;20532;-75
2023/09/24 09:23:37;;;;;;;12.10;4.47;;;;;;;13.77;100.00;103159.19;4960355;28;20879;-75
2023/09/24 09:26:03;;;;;;;7.07;3.90;;;;;;;13.08;100.00;103026.28;4960634;28;20489;-75
2023/09/24 09:28:31;;;;;;;8.40;4.27;;;;;;;12.14;100.00;102811.00;4964214;28;20960;-75
2023/09/24 09:31:04;;;;;;;10.90;4.80;;;;;;;14.74;100.00;103205.44;4965288;28;20465;-75
2023/09/24 09:33:50;;;;;;;7.80;3.47;;;;;;;13.45;100.00;102981.97;4959487;28;20466;-76
2023/09/24 09:36:30;;;;;;;8.83;4.13;;;;;;;11.86;100.00;102727.84;4980492;28;20442;-75
2023/09/24 09:38:57;;;;;;;8.57;3.90;;;;;;;13.59;100.00;102999.34;4964341;28;20480;-75
2023/09/24 09:41:24;;;;;;;10.33;4.20;;;;;;;12.82;100.00;102870.13;4963299;28;20450;-73
2023/09/24 09:43:52;;;;;;;10.87;3.90;;;;;;;13.61;100.00;102940.69;4965398;28;20450;-75
2023/09/24 09:46:20;;;;;;;8.73;3.67;;;;;;;12.19;100.00;102674.16;4963130;28;20560;-74
2023/09/24 09:49:12;;;;;;;7.23;3.20;;;;;;;12.55;100.00;102746.53;4962313;28;20450;-74
2023/09/24 09:51:52;;;;;;;5.53;2.40;;;;;;;14.54;100.00;103001.53;4961872;28;20457;-73
2023/09/24 09:54:21;;;;;;;7.40;2.60;;;;;;;14.15;100.00;102929.38;4964140;28;20447;-75
2023/09/24 09:56:47;;;;;;;10.70;3.93;;;;;;;15.29;100.00;103103.81;4964425;28;20429;-75
2023/09/24 09:59:14;;;;;;;8.37;3.60;;;;;;;13.65;100.00;102854.91;4964800;28;20936;-75
2023/09/24 10:01:39;;;;;;;8.60;3.30;;;;;;;13.52;100.00;102758.38;4960323;28;20541;-77
2023/09/24 10:04:07;;;;;;;7.40;3.97;;;;;;;14.04;100.00;102824.50;4965871;28;20479;-74
2023/09/24 10:06:35;;;;;;;10.30;2.70;;;;;;;13.08;100.00;102610.56;4964709;28;20207;-75
2023/09/24 10:09:01;;;;;;;7.30;2.67;;;;;;;14.51;100.00;102835.25;4975657;28;20499;-74
2023/09/24 10:11:32;;;;;;;4.67;2.30;;;;;;;15.61;100.00;102975.69;4963269;28;20593;-74
2023/09/24 10:13:59;;;;;;;7.83;3.00;;;;;;;12.58;100.00;102468.94;4962692;28;20499;-74
2023/09/24 10:16:31;;;;;;;10.33;3.00;;;;;;;15.76;100.00;102929.75;4959997;28;20805;-74
2023/09/24 10:19:12;;;;;;;8.40;3.20;;;;;;;13.08;100.00;102455.16;4977086;28;20445;-75
2023/09/24 10:21:43;;;;;;;8.07;2.87;;;;;;;14.79;100.00;102683.53;4972080;23;20454;-75
2023/09/24 10:24:14;;;;;;;7.30;3.00;;;;;;;15.82;100.00;102826.19;4964044;28;20890;-75
2023/09/24 10:27:03;;;;;;;5.93;2.40;;;;;;;13.33;100.00;102364.22;4951238;28;20596;-74
2023/09/24 10:29:44;;;;;;;6.53;2.40;;;;;;;16.18;100.00;102798.41;4947370;28;20402;-75
2023/09/24 10:32:14;;;;;;;7.43;3.17;;;;;;;14.95;100.00;102588.81;4949170;28;20667;-75
2023/09/24 10:34:54;;;;;;;6.10;2.30;;;;;;;15.75;100.00;102627.78;4947812;28;20434;-75
2023/09/24 10:37:30;;;;;;;6.00;2.37;;;;;;;14.10;100.00;102317.34;4949475;28;20437;-75
2023/09/24 10:40:04;;;;;;;9.47;2.40;;;;;;;16.27;100.00;102654.59;4949454;28;20822;-75
2023/09/24 10:42:38;;;;;;;6.30;2.60;;;;;;;15.32;100.00;102466.22;4949793;28;20441;-75
2023/09/24 10:45:06;;;;;;;6.70;2.20;;;;;;;16.46;100.00;102585.41;4946896;28;20481;-75
2023/09/24 10:47:37;;;;;;;7.63;2.63;;;;;;;13.69;100.00;102095.84;4942055;28;20885;-74
2023/09/24 10:50:04;;;;;;;11.10;2.60;;;;;;;16.28;100.00;102525.47;4964160;28;20522;-75
2023/09/24 10:52:52;;;;;;;10.70;3.00;;;;;;;16.39;100.00;102488.91;4948868;28;20497;-77
2023/09/24 10:55:20;;;;;;;5.10;1.77;;;;;;;15.17;100.00;102232.16;4951077;28;20615;-76
2023/09/24 10:57:47;;;;;;;5.10;1.80;;;;;;;15.59;100.00;102242.03;4952647;28;20941;-76
2023/09/24 11:00:17;;;;;;;6.13;2.40;;;;;;;14.40;100.00;102006.91;4953409;28;20529;-77
2023/09/24 11:02:43;;;;;;;6.20;2.10;;;;;;;15.79;100.00;102285.47;4950410;28;20481;-78
2023/09/24 11:05:09;;;;;;;6.10;2.03;;;;;;;14.86;100.00;102138.78;4965256;28;20549;-76
2023/09/24 11:07:34;;;;;;;4.70;1.70;;;;;;;15.62;100.00;102168.59;4948714;28;20562;-75
2023/09/24 11:10:00;;;;;;;8.50;1.97;;;;;;;15.44;100.00;102085.31;4951441;28;20466;-75
2023/09/24 11:12:25;;;;;;;9.47;2.20;;;;;;;14.60;100.00;101959.31;4952408;28;20203;-76
2023/09/24 11:14:58;;;;;;;3.33;1.50;;;;;;;15.29;100.00;102054.88;4953737;28;20266;-77
2023/09/24 11:17:24;;;;;;;6.17;1.67;;;;;;;15.32;100.00;102040.97;4950985;28;20186;-76
2023/09/24 11:19:50;;;;;;;6.20;1.90;;;;;;;14.72;100.00;101947.97;4954746;28;20439;-77